sensor_id;sensor_type;location;lat;lon;timestamp;pressure;altitude;pressure_sealevel;temperature;humidity
28630;BME280;15817;42.130;24.762;2023-04-30T00:01:03;99576.25;;;15.97;66.00
28630;BME280;15817;42.130;24.762;2023-04-30T00:03:29;99575.28;;;15.99;66.24
28630;BME280;15817;42.130;24.762;2023-04-30T00:05:54;99555.72;;;15.96;65.77
28630;BME280;15817;42.130;24.762;2023-04-30T00:08:20;99569.06;;;15.99;65.36
28630;BME280;15817;42.130;24.762;2023-04-30T00:10:46;99561.09;;;15.96;65.48
28630;BME280;15817;42.130;24.762;2023-04-30T00:13:12;99560.47;;;15.87;65.82
28630;BME280;15817;42.130;24.762;2023-04-30T00:15:38;99556.00;;;15.88;65.65
28630;BME280;15817;42.130;24.762;2023-04-30T00:18:05;99571.88;;;15.94;65.24
28630;BME280;15817;42.130;24.762;2023-04-30T00:20:32;99557.00;;;15.84;65.13
28630;BME280;15817;42.130;24.762;2023-04-30T00:22:59;99558.75;;;15.85;65.60
28630;BME280;15817;42.130;24.762;2023-04-30T00:25:25;99572.00;;;15.91;64.41
28630;BME280;15817;42.130;24.762;2023-04-30T00:27:51;99560.56;;;15.84;63.16
28630;BME280;15817;42.130;24.762;2023-04-30T00:30:19;99573.94;;;15.86;63.09
28630;BME280;15817;42.130;24.762;2023-04-30T00:32:45;99567.78;;;15.82;63.49
28630;BME280;15817;42.130;24.762;2023-04-30T00:35:11;99569.53;;;15.83;64.03
28630;BME280;15817;42.130;24.762;2023-04-30T00:37:37;99567.66;;;15.87;64.00
28630;BME280;15817;42.130;24.762;2023-04-30T00:40:03;99573.00;;;15.87;64.05
28630;BME280;15817;42.130;24.762;2023-04-30T00:42:29;99568.63;;;15.84;63.94
28630;BME280;15817;42.130;24.762;2023-04-30T00:44:54;99569.44;;;15.86;63.99
28630;BME280;15817;42.130;24.762;2023-04-30T00:47:20;99572.09;;;15.88;64.32
28630;BME280;15817;42.130;24.762;2023-04-30T00:49:46;99572.38;;;15.79;64.69
28630;BME280;15817;42.130;24.762;2023-04-30T00:52:12;99571.50;;;15.78;65.05
28630;BME280;15817;42.130;24.762;2023-04-30T00:54:38;99558.31;;;15.71;65.38
28630;BME280;15817;42.130;24.762;2023-04-30T00:57:04;99566.28;;;15.74;65.59
28630;BME280;15817;42.130;24.762;2023-04-30T00:59:31;99561.16;;;15.66;66.09
28630;BME280;15817;42.130;24.762;2023-04-30T01:01:57;99558.44;;;15.68;66.51
28630;BME280;15817;42.130;24.762;2023-04-30T01:04:23;99553.09;;;15.68;66.47
28630;BME280;15817;42.130;24.762;2023-04-30T01:06:49;99560.19;;;15.69;66.62
28630;BME280;15817;42.130;24.762;2023-04-30T01:09:15;99562.81;;;15.70;66.66
28630;BME280;15817;42.130;24.762;2023-04-30T01:11:59;99561.16;;;15.66;66.38
28630;BME280;15817;42.130;24.762;2023-04-30T01:15:05;99565.59;;;15.67;65.32
28630;BME280;15817;42.130;24.762;2023-04-30T01:17:40;99566.38;;;15.71;64.11
28630;BME280;15817;42.130;24.762;2023-04-30T01:20:09;99563.69;;;15.71;63.13
28630;BME280;15817;42.130;24.762;2023-04-30T01:22:51;99557.53;;;15.69;63.35
28630;BME280;15817;42.130;24.762;2023-04-30T01:28:16;99565.56;;;15.69;62.15
28630;BME280;15817;42.130;24.762;2023-04-30T01:30:44;99551.38;;;15.65;61.58
28630;BME280;15817;42.130;24.762;2023-04-30T01:33:11;99564.84;;;15.62;61.82
28630;BME280;15817;42.130;24.762;2023-04-30T01:41:18;99560.00;;;15.45;65.02
28630;BME280;15817;42.130;24.762;2023-04-30T01:46:25;99542.50;;;15.34;66.23
28630;BME280;15817;42.130;24.762;2023-04-30T01:51:44;99545.22;;;15.32;67.42
28630;BME280;15817;42.130;24.762;2023-04-30T01:57:03;99536.59;;;15.23;68.73
28630;BME280;15817;42.130;24.762;2023-04-30T01:59:31;99552.69;;;15.21;68.81
28630;BME280;15817;42.130;24.762;2023-04-30T02:01:57;99545.44;;;15.25;68.97
28630;BME280;15817;42.130;24.762;2023-04-30T02:04:23;99535.84;;;15.17;68.88
28630;BME280;15817;42.130;24.762;2023-04-30T02:06:49;99531.44;;;15.15;68.84
28630;BME280;15817;42.130;24.762;2023-04-30T02:09:14;99547.47;;;15.16;69.21
28630;BME280;15817;42.130;24.762;2023-04-30T02:11:40;99534.28;;;15.10;69.38
28630;BME280;15817;42.130;24.762;2023-04-30T02:14:06;99536.13;;;15.08;69.22
28630;BME280;15817;42.130;24.762;2023-04-30T02:16:32;99538.84;;;15.07;68.86
28630;BME280;15817;42.130;24.762;2023-04-30T02:18:58;99537.03;;;15.07;68.78
28630;BME280;15817;42.130;24.762;2023-04-30T02:21:24;99547.69;;;15.09;68.72
28630;BME280;15817;42.130;24.762;2023-04-30T02:23:51;99547.66;;;15.10;68.18
28630;BME280;15817;42.130;24.762;2023-04-30T02:26:17;99555.59;;;15.13;67.36
28630;BME280;15817;42.130;24.762;2023-04-30T02:28:43;99544.91;;;15.12;67.12
28630;BME280;15817;42.130;24.762;2023-04-30T02:31:10;99532.63;;;15.05;67.32
28630;BME280;15817;42.130;24.762;2023-04-30T02:33:36;99550.19;;;15.15;67.53
28630;BME280;15817;42.130;24.762;2023-04-30T02:36:01;99541.47;;;15.08;67.38
28630;BME280;15817;42.130;24.762;2023-04-30T02:38:27;99544.03;;;15.11;67.72
28630;BME280;15817;42.130;24.762;2023-04-30T02:40:53;99549.34;;;15.13;67.24
28630;BME280;15817;42.130;24.762;2023-04-30T02:43:19;99544.00;;;15.13;67.51
28630;BME280;15817;42.130;24.762;2023-04-30T02:45:45;99534.34;;;15.07;67.73
28630;BME280;15817;42.130;24.762;2023-04-30T02:48:11;99543.22;;;15.09;67.36
28630;BME280;15817;42.130;24.762;2023-04-30T02:50:36;99531.84;;;15.01;67.25
28630;BME280;15817;42.130;24.762;2023-04-30T02:53:02;99534.66;;;14.97;66.83
28630;BME280;15817;42.130;24.762;2023-04-30T02:55:28;99540.72;;;15.03;66.29
28630;BME280;15817;42.130;24.762;2023-04-30T02:57:55;99545.94;;;15.08;65.89
28630;BME280;15817;42.130;24.762;2023-04-30T03:00:21;99538.19;;;14.99;64.50
28630;BME280;15817;42.130;24.762;2023-04-30T03:02:48;99554.09;;;15.03;63.96
28630;BME280;15817;42.130;24.762;2023-04-30T03:05:13;99545.38;;;14.97;64.00
28630;BME280;15817;42.130;24.762;2023-04-30T03:07:40;99552.47;;;14.99;63.89
28630;BME280;15817;42.130;24.762;2023-04-30T03:10:07;99561.41;;;14.98;64.93
28630;BME280;15817;42.130;24.762;2023-04-30T03:12:33;99560.63;;;14.95;65.46
28630;BME280;15817;42.130;24.762;2023-04-30T03:14:59;99546.53;;;14.88;64.70
28630;BME280;15817;42.130;24.762;2023-04-30T03:17:25;99552.84;;;14.85;65.03
28630;BME280;15817;42.130;24.762;2023-04-30T03:19:50;99554.66;;;14.85;65.07
28630;BME280;15817;42.130;24.762;2023-04-30T03:22:16;99551.09;;;14.84;65.54
28630;BME280;15817;42.130;24.762;2023-04-30T03:24:48;99549.28;;;14.85;66.04
28630;BME280;15817;42.130;24.762;2023-04-30T03:27:14;99563.41;;;14.90;66.12
28630;BME280;15817;42.130;24.762;2023-04-30T03:29:41;99563.53;;;14.87;66.16
28630;BME280;15817;42.130;24.762;2023-04-30T03:32:07;99561.75;;;14.86;67.39
28630;BME280;15817;42.130;24.762;2023-04-30T03:34:33;99566.19;;;14.87;68.15
28630;BME280;15817;42.130;24.762;2023-04-30T03:36:59;99568.00;;;14.87;69.73
28630;BME280;15817;42.130;24.762;2023-04-30T03:39:29;99577.78;;;14.88;70.96
28630;BME280;15817;42.130;24.762;2023-04-30T03:41:54;99582.34;;;14.84;72.21
28630;BME280;15817;42.130;24.762;2023-04-30T03:44:20;99586.59;;;14.91;73.18
28630;BME280;15817;42.130;24.762;2023-04-30T03:46:46;99588.34;;;14.92;75.01
28630;BME280;15817;42.130;24.762;2023-04-30T03:49:12;99584.81;;;14.90;76.83
28630;BME280;15817;42.130;24.762;2023-04-30T03:51:38;99594.66;;;14.90;77.44
28630;BME280;15817;42.130;24.762;2023-04-30T03:54:06;99591.09;;;14.89;78.10
28630;BME280;15817;42.130;24.762;2023-04-30T03:56:33;99615.16;;;14.91;78.64
28630;BME280;15817;42.130;24.762;2023-04-30T03:58:59;99593.00;;;14.85;78.95
28630;BME280;15817;42.130;24.762;2023-04-30T04:01:28;99594.84;;;14.83;79.49
28630;BME280;15817;42.130;24.762;2023-04-30T04:03:54;99593.88;;;14.86;80.10
28630;BME280;15817;42.130;24.762;2023-04-30T04:06:20;99601.88;;;14.88;80.62
28630;BME280;15817;42.130;24.762;2023-04-30T04:08:46;99600.19;;;14.83;81.15
28630;BME280;15817;42.130;24.762;2023-04-30T04:11:12;99602.81;;;14.87;81.49
28630;BME280;15817;42.130;24.762;2023-04-30T04:13:38;99608.16;;;14.87;81.71
28630;BME280;15817;42.130;24.762;2023-04-30T04:16:04;99599.34;;;14.81;81.13
28630;BME280;15817;42.130;24.762;2023-04-30T04:18:30;99607.31;;;14.84;81.49
28630;BME280;15817;42.130;24.762;2023-04-30T04:20:56;99625.09;;;14.87;81.44
28630;BME280;15817;42.130;24.762;2023-04-30T04:23:22;99613.63;;;14.82;81.49
28630;BME280;15817;42.130;24.762;2023-04-30T04:25:48;99610.16;;;14.78;81.63
28630;BME280;15817;42.130;24.762;2023-04-30T04:28:17;99612.84;;;14.77;82.49
28630;BME280;15817;42.130;24.762;2023-04-30T04:30:43;99622.53;;;14.82;82.52
28630;BME280;15817;42.130;24.762;2023-04-30T04:33:09;99620.72;;;14.84;82.21
28630;BME280;15817;42.130;24.762;2023-04-30T04:35:37;99621.63;;;14.83;82.06
28630;BME280;15817;42.130;24.762;2023-04-30T04:38:04;99626.03;;;14.86;81.98
28630;BME280;15817;42.130;24.762;2023-04-30T04:40:30;99611.81;;;14.82;82.01
28630;BME280;15817;42.130;24.762;2023-04-30T04:42:56;99615.47;;;14.80;82.01
28630;BME280;15817;42.130;24.762;2023-04-30T04:45:22;99619.97;;;14.78;82.38
28630;BME280;15817;42.130;24.762;2023-04-30T04:47:49;99615.44;;;14.81;82.77
28630;BME280;15817;42.130;24.762;2023-04-30T04:50:16;99615.38;;;14.83;82.87
28630;BME280;15817;42.130;24.762;2023-04-30T04:52:51;99621.59;;;14.85;82.76
28630;BME280;15817;42.130;24.762;2023-04-30T04:55:23;99618.00;;;14.86;83.23
28630;BME280;15817;42.130;24.762;2023-04-30T04:57:55;99629.44;;;14.91;83.00
28630;BME280;15817;42.130;24.762;2023-04-30T05:00:32;99623.16;;;14.92;82.34
28630;BME280;15817;42.130;24.762;2023-04-30T05:03:15;99616.97;;;14.90;82.58
28630;BME280;15817;42.130;24.762;2023-04-30T05:05:50;99620.47;;;14.92;83.24
28630;BME280;15817;42.130;24.762;2023-04-30T05:08:29;99638.38;;;14.90;83.93
28630;BME280;15817;42.130;24.762;2023-04-30T05:11:07;99626.00;;;14.88;84.42
28630;BME280;15817;42.130;24.762;2023-04-30T05:13:57;99629.69;;;14.82;84.22
28630;BME280;15817;42.130;24.762;2023-04-30T05:16:28;99636.72;;;14.86;84.01
28630;BME280;15817;42.130;24.762;2023-04-30T05:19:21;99627.94;;;14.81;83.84
28630;BME280;15817;42.130;24.762;2023-04-30T05:25:22;99628.66;;;14.88;84.12
28630;BME280;15817;42.130;24.762;2023-04-30T05:28:35;99641.06;;;14.90;84.42
28630;BME280;15817;42.130;24.762;2023-04-30T05:31:04;99632.22;;;14.88;84.90
28630;BME280;15817;42.130;24.762;2023-04-30T05:33:31;99633.06;;;14.89;85.45
28630;BME280;15817;42.130;24.762;2023-04-30T05:36:06;99628.59;;;14.89;85.67
28630;BME280;15817;42.130;24.762;2023-04-30T05:38:31;99642.81;;;14.91;85.48
28630;BME280;15817;42.130;24.762;2023-04-30T05:40:57;99625.91;;;14.89;84.94
28630;BME280;15817;42.130;24.762;2023-04-30T05:43:23;99640.09;;;14.93;84.23
28630;BME280;15817;42.130;24.762;2023-04-30T05:45:48;99640.06;;;14.94;84.00
28630;BME280;15817;42.130;24.762;2023-04-30T05:48:14;99624.09;;;14.91;83.81
28630;BME280;15817;42.130;24.762;2023-04-30T05:50:40;99634.72;;;14.94;84.19
28630;BME280;15817;42.130;24.762;2023-04-30T05:53:06;99631.94;;;14.99;83.75
28630;BME280;15817;42.130;24.762;2023-04-30T05:55:33;99630.25;;;14.95;82.12
28630;BME280;15817;42.130;24.762;2023-04-30T05:58:06;99625.75;;;14.95;82.19
28630;BME280;15817;42.130;24.762;2023-04-30T06:00:32;99619.50;;;14.96;81.93
28630;BME280;15817;42.130;24.762;2023-04-30T06:02:57;99645.94;;;15.08;80.30
28630;BME280;15817;42.130;24.762;2023-04-30T06:05:23;99643.28;;;15.07;79.62
28630;BME280;15817;42.130;24.762;2023-04-30T06:07:49;99646.84;;;15.07;79.07
28630;BME280;15817;42.130;24.762;2023-04-30T06:10:15;99641.34;;;15.12;78.95
28630;BME280;15817;42.130;24.762;2023-04-30T06:12:40;99642.19;;;15.14;78.41
28630;BME280;15817;42.130;24.762;2023-04-30T06:15:06;99643.03;;;15.16;78.25
28630;BME280;15817;42.130;24.762;2023-04-30T06:17:32;99646.63;;;15.15;77.30
28630;BME280;15817;42.130;24.762;2023-04-30T06:19:58;99644.75;;;15.18;77.74
28630;BME280;15817;42.130;24.762;2023-04-30T06:22:29;99638.50;;;15.18;78.06
28630;BME280;15817;42.130;24.762;2023-04-30T06:24:55;99640.19;;;15.22;78.85
28630;BME280;15817;42.130;24.762;2023-04-30T06:27:22;99641.91;;;15.23;79.70
28630;BME280;15817;42.130;24.762;2023-04-30T06:29:47;99647.16;;;15.28;80.09
28630;BME280;15817;42.130;24.762;2023-04-30T06:32:13;99646.19;;;15.30;78.58
28630;BME280;15817;42.130;24.762;2023-04-30T06:34:39;99636.28;;;15.34;79.01
28630;BME280;15817;42.130;24.762;2023-04-30T06:37:05;99633.50;;;15.37;79.88
28630;BME280;15817;42.130;24.762;2023-04-30T06:39:31;99636.09;;;15.40;80.13
28630;BME280;15817;42.130;24.762;2023-04-30T06:41:57;99630.59;;;15.44;81.03
28630;BME280;15817;42.130;24.762;2023-04-30T06:44:22;99643.63;;;15.58;81.83
28630;BME280;15817;42.130;24.762;2023-04-30T06:46:48;99639.00;;;15.63;80.61
28630;BME280;15817;42.130;24.762;2023-04-30T06:49:14;99635.34;;;15.66;81.09
28630;BME280;15817;42.130;24.762;2023-04-30T06:51:43;99640.72;;;15.66;80.61
28630;BME280;15817;42.130;24.762;2023-04-30T06:54:08;99634.53;;;15.64;80.32
28630;BME280;15817;42.130;24.762;2023-04-30T06:57:04;99641.44;;;15.71;80.45
28630;BME280;15817;42.130;24.762;2023-04-30T06:59:43;99614.00;;;15.63;79.65
28630;BME280;15817;42.130;24.762;2023-04-30T07:02:09;99636.00;;;15.74;79.05
28630;BME280;15817;42.130;24.762;2023-04-30T07:04:38;99623.47;;;15.74;78.21
28630;BME280;15817;42.130;24.762;2023-04-30T07:07:05;99630.38;;;15.81;78.56
28630;BME280;15817;42.130;24.762;2023-04-30T07:09:31;99631.09;;;15.88;77.60
28630;BME280;15817;42.130;24.762;2023-04-30T07:11:59;99622.41;;;15.80;76.42
28630;BME280;15817;42.130;24.762;2023-04-30T07:14:25;99620.41;;;15.86;76.68
28630;BME280;15817;42.130;24.762;2023-04-30T07:16:52;99621.16;;;15.91;75.79
28630;BME280;15817;42.130;24.762;2023-04-30T07:19:18;99616.53;;;15.95;75.15
28630;BME280;15817;42.130;24.762;2023-04-30T07:21:44;99623.28;;;16.08;74.20
28630;BME280;15817;42.130;24.762;2023-04-30T07:24:10;99618.88;;;16.06;73.46
28630;BME280;15817;42.130;24.762;2023-04-30T07:26:39;99618.78;;;16.09;74.04
28630;BME280;15817;42.130;24.762;2023-04-30T07:29:06;99614.16;;;16.14;73.33
28630;BME280;15817;42.130;24.762;2023-04-30T07:31:32;99611.31;;;16.18;73.25
28630;BME280;15817;42.130;24.762;2023-04-30T07:33:58;99619.00;;;16.29;72.74
28630;BME280;15817;42.130;24.762;2023-04-30T07:36:24;99624.75;;;16.45;73.01
28630;BME280;15817;42.130;24.762;2023-04-30T07:38:52;99610.50;;;16.43;72.73
28630;BME280;15817;42.130;24.762;2023-04-30T07:41:18;99620.72;;;16.58;71.81
28630;BME280;15817;42.130;24.762;2023-04-30T07:43:43;99612.34;;;16.69;70.76
28630;BME280;15817;42.130;24.762;2023-04-30T07:46:09;99615.25;;;16.87;69.65
28630;BME280;15817;42.130;24.762;2023-04-30T07:48:35;99605.59;;;17.07;68.77
28630;BME280;15817;42.130;24.762;2023-04-30T07:51:09;99611.53;;;17.40;67.52
28630;BME280;15817;42.130;24.762;2023-04-30T07:53:40;99608.81;;;17.64;65.45
28630;BME280;15817;42.130;24.762;2023-04-30T07:56:06;99610.97;;;18.00;64.70
28630;BME280;15817;42.130;24.762;2023-04-30T07:58:32;99625.00;;;18.30;62.89
28630;BME280;15817;42.130;24.762;2023-04-30T08:00:58;99609.94;;;18.46;59.78
28630;BME280;15817;42.130;24.762;2023-04-30T08:03:24;99603.53;;;18.70;58.32
28630;BME280;15817;42.130;24.762;2023-04-30T08:05:51;99610.44;;;18.98;57.50
28630;BME280;15817;42.130;24.762;2023-04-30T08:08:17;99605.03;;;19.18;55.74
28630;BME280;15817;42.130;24.762;2023-04-30T08:10:42;99614.28;;;19.51;55.57
28630;BME280;15817;42.130;24.762;2023-04-30T08:13:09;99597.97;;;19.73;55.03
28630;BME280;15817;42.130;24.762;2023-04-30T08:15:35;99600.63;;;19.94;52.52
28630;BME280;15817;42.130;24.762;2023-04-30T08:18:02;99609.09;;;20.22;52.34
28630;BME280;15817;42.130;24.762;2023-04-30T08:20:28;99593.16;;;20.35;52.09
28630;BME280;15817;42.130;24.762;2023-04-30T08:22:54;99610.38;;;20.68;50.92
28630;BME280;15817;42.130;24.762;2023-04-30T08:25:27;99603.31;;;20.83;48.94
28630;BME280;15817;42.130;24.762;2023-04-30T08:27:52;99588.75;;;21.03;47.73
28630;BME280;15817;42.130;24.762;2023-04-30T08:30:18;99592.72;;;21.30;47.54
28630;BME280;15817;42.130;24.762;2023-04-30T08:32:44;99595.22;;;21.50;46.91
28630;BME280;15817;42.130;24.762;2023-04-30T08:35:10;99582.75;;;21.63;46.47
28630;BME280;15817;42.130;24.762;2023-04-30T08:37:36;99599.78;;;21.81;45.88
28630;BME280;15817;42.130;24.762;2023-04-30T08:40:02;99594.47;;;21.80;45.00
28630;BME280;15817;42.130;24.762;2023-04-30T08:42:36;99580.34;;;21.90;44.22
28630;BME280;15817;42.130;24.762;2023-04-30T08:45:06;99575.19;;;22.17;43.33
28630;BME280;15817;42.130;24.762;2023-04-30T08:47:35;99586.97;;;22.32;43.19
28630;BME280;15817;42.130;24.762;2023-04-30T08:50:01;99587.19;;;22.59;42.29
28630;BME280;15817;42.130;24.762;2023-04-30T08:52:32;99580.81;;;22.60;42.19
28630;BME280;15817;42.130;24.762;2023-04-30T08:55:06;99585.38;;;22.73;42.37
28630;BME280;15817;42.130;24.762;2023-04-30T08:57:38;99583.22;;;22.64;44.18
28630;BME280;15817;42.130;24.762;2023-04-30T09:00:04;99577.09;;;22.77;42.84
28630;BME280;15817;42.130;24.762;2023-04-30T09:02:32;99574.94;;;23.11;41.73
28630;BME280;15817;42.130;24.762;2023-04-30T09:05:07;99574.66;;;23.16;40.34
28630;BME280;15817;42.130;24.762;2023-04-30T09:07:40;99562.88;;;22.87;40.89
28630;BME280;15817;42.130;24.762;2023-04-30T09:10:22;99580.19;;;22.85;39.20
28630;BME280;15817;42.130;24.762;2023-04-30T09:13:11;99578.34;;;22.55;39.44
28630;BME280;15817;42.130;24.762;2023-04-30T09:15:53;99555.47;;;22.15;41.04
28630;BME280;15817;42.130;24.762;2023-04-30T09:18:19;99555.50;;;21.82;41.56
28630;BME280;15817;42.130;24.762;2023-04-30T09:20:59;99555.50;;;21.66;42.57
28630;BME280;15817;42.130;24.762;2023-04-30T09:23:34;99554.19;;;21.58;41.72
28630;BME280;15817;42.130;24.762;2023-04-30T09:26:00;99561.38;;;21.90;41.21
28630;BME280;15817;42.130;24.762;2023-04-30T09:28:28;99552.28;;;22.53;40.24
28630;BME280;15817;42.130;24.762;2023-04-30T09:30:56;99556.50;;;22.88;39.82
28630;BME280;15817;42.130;24.762;2023-04-30T09:33:22;99548.19;;;23.34;39.16
28630;BME280;15817;42.130;24.762;2023-04-30T09:35:48;99552.41;;;23.95;37.01
28630;BME280;15817;42.130;24.762;2023-04-30T09:38:30;99549.06;;;24.18;36.07
28630;BME280;15817;42.130;24.762;2023-04-30T09:40:58;99545.72;;;24.54;34.82
28630;BME280;15817;42.130;24.762;2023-04-30T09:43:25;99537.50;;;24.81;35.06
28630;BME280;15817;42.130;24.762;2023-04-30T09:45:51;99531.78;;;24.98;34.72
28630;BME280;15817;42.130;24.762;2023-04-30T09:48:20;99531.22;;;24.80;35.23
28630;BME280;15817;42.130;24.762;2023-04-30T09:50:48;99527.94;;;24.09;35.14
28630;BME280;15817;42.130;24.762;2023-04-30T09:53:14;99526.66;;;23.88;35.62
28630;BME280;15817;42.130;24.762;2023-04-30T09:55:44;99518.72;;;23.70;35.56
28630;BME280;15817;42.130;24.762;2023-04-30T09:58:51;99514.19;;;23.28;37.04
28630;BME280;15817;42.130;24.762;2023-04-30T10:01:34;99507.69;;;23.02;37.40
28630;BME280;15817;42.130;24.762;2023-04-30T10:04:03;99518.41;;;22.90;38.19
28630;BME280;15817;42.130;24.762;2023-04-30T10:06:32;99515.22;;;22.83;37.38
28630;BME280;15817;42.130;24.762;2023-04-30T10:09:02;99509.31;;;22.91;37.12
28630;BME280;15817;42.130;24.762;2023-04-30T10:11:34;99521.72;;;22.81;37.84
28630;BME280;15817;42.130;24.762;2023-04-30T10:14:12;99512.06;;;22.61;37.98
28630;BME280;15817;42.130;24.762;2023-04-30T10:17:04;99517.97;;;22.67;38.29
28630;BME280;15817;42.130;24.762;2023-04-30T10:19:40;99504.38;;;22.83;37.48
28630;BME280;15817;42.130;24.762;2023-04-30T10:22:11;99506.06;;;22.70;38.10
28630;BME280;15817;42.130;24.762;2023-04-30T10:24:37;99500.44;;;22.59;37.81
28630;BME280;15817;42.130;24.762;2023-04-30T10:27:03;99511.41;;;22.42;37.20
28630;BME280;15817;42.130;24.762;2023-04-30T10:29:45;99501.91;;;22.34;38.56
28630;BME280;15817;42.130;24.762;2023-04-30T10:35:48;99507.50;;;22.31;39.09
28630;BME280;15817;42.130;24.762;2023-04-30T10:38:27;99498.97;;;22.23;39.53
28630;BME280;15817;42.130;24.762;2023-04-30T10:41:12;99495.19;;;22.56;39.05
28630;BME280;15817;42.130;24.762;2023-04-30T10:43:49;99483.56;;;22.54;39.14
28630;BME280;15817;42.130;24.762;2023-04-30T10:46:23;99496.53;;;22.49;38.53
28630;BME280;15817;42.130;24.762;2023-04-30T10:48:54;99487.66;;;22.31;37.90
28630;BME280;15817;42.130;24.762;2023-04-30T10:51:21;99497.31;;;22.21;38.86
28630;BME280;15817;42.130;24.762;2023-04-30T10:53:56;99489.34;;;22.18;39.48
28630;BME280;15817;42.130;24.762;2023-04-30T10:56:30;99493.41;;;22.11;40.11
28630;BME280;15817;42.130;24.762;2023-04-30T10:59:00;99481.28;;;22.02;39.60
28630;BME280;15817;42.130;24.762;2023-04-30T11:01:28;99483.28;;;21.98;40.93
28630;BME280;15817;42.130;24.762;2023-04-30T11:04:07;99486.88;;;21.99;40.91
28630;BME280;15817;42.130;24.762;2023-04-30T11:09:34;99475.66;;;22.05;40.64
28630;BME280;15817;42.130;24.762;2023-04-30T11:12:09;99478.72;;;22.45;40.65
28630;BME280;15817;42.130;24.762;2023-04-30T11:14:39;99472.28;;;22.61;39.60
28630;BME280;15817;42.130;24.762;2023-04-30T11:17:06;99475.13;;;22.44;39.80
28630;BME280;15817;42.130;24.762;2023-04-30T11:19:32;99480.41;;;22.31;40.07
28630;BME280;15817;42.130;24.762;2023-04-30T11:24:53;99479.75;;;21.96;40.01
28630;BME280;15817;42.130;24.762;2023-04-30T11:27:27;99467.56;;;21.89;39.73
28630;BME280;15817;42.130;24.762;2023-04-30T11:29:54;99459.69;;;21.85;40.91
28630;BME280;15817;42.130;24.762;2023-04-30T11:32:23;99454.59;;;21.94;45.12
28630;BME280;15817;42.130;24.762;2023-04-30T11:34:50;99452.03;;;22.67;46.20
28630;BME280;15817;42.130;24.762;2023-04-30T11:37:28;99444.78;;;23.10;44.50
28630;BME280;15817;42.130;24.762;2023-04-30T11:39:56;99462.50;;;23.58;42.52
28630;BME280;15817;42.130;24.762;2023-04-30T11:42:21;99455.13;;;23.60;38.80
28630;BME280;15817;42.130;24.762;2023-04-30T11:44:47;99444.31;;;23.73;38.58
28630;BME280;15817;42.130;24.762;2023-04-30T11:47:13;99451.25;;;24.04;38.03
28630;BME280;15817;42.130;24.762;2023-04-30T11:49:40;99431.81;;;23.97;38.01
28630;BME280;15817;42.130;24.762;2023-04-30T11:52:06;99445.31;;;24.11;37.57
28630;BME280;15817;42.130;24.762;2023-04-30T11:54:37;99443.00;;;24.32;36.73
28630;BME280;15817;42.130;24.762;2023-04-30T11:57:03;99439.09;;;24.36;36.56
28630;BME280;15817;42.130;24.762;2023-04-30T11:59:39;99436.84;;;24.56;37.52
28630;BME280;15817;42.130;24.762;2023-04-30T12:02:06;99434.75;;;24.59;36.60
28630;BME280;15817;42.130;24.762;2023-04-30T12:04:32;99430.09;;;24.09;36.63
28630;BME280;15817;42.130;24.762;2023-04-30T12:07:01;99422.28;;;23.51;36.71
28630;BME280;15817;42.130;24.762;2023-04-30T12:09:28;99430.06;;;23.14;37.09
28630;BME280;15817;42.130;24.762;2023-04-30T12:11:54;99418.16;;;22.88;37.39
28630;BME280;15817;42.130;24.762;2023-04-30T12:14:23;99422.59;;;22.75;38.59
28630;BME280;15817;42.130;24.762;2023-04-30T12:16:50;99411.44;;;22.65;37.73
28630;BME280;15817;42.130;24.762;2023-04-30T12:19:18;99404.84;;;22.55;37.87
28630;BME280;15817;42.130;24.762;2023-04-30T12:21:47;99404.75;;;22.43;38.29
28630;BME280;15817;42.130;24.762;2023-04-30T12:24:15;99393.44;;;22.36;39.39
28630;BME280;15817;42.130;24.762;2023-04-30T12:26:42;99411.00;;;22.29;38.80
28630;BME280;15817;42.130;24.762;2023-04-30T12:29:09;99412.28;;;22.23;39.96
28630;BME280;15817;42.130;24.762;2023-04-30T12:31:38;99405.59;;;22.15;39.41
28630;BME280;15817;42.130;24.762;2023-04-30T12:34:06;99422.59;;;22.17;39.67
28630;BME280;15817;42.130;24.762;2023-04-30T12:36:33;99421.63;;;22.03;40.25
28630;BME280;15817;42.130;24.762;2023-04-30T12:39:07;99442.00;;;21.79;50.49
28630;BME280;15817;42.130;24.762;2023-04-30T12:44:20;99457.53;;;20.95;65.17
28630;BME280;15817;42.130;24.762;2023-04-30T12:46:48;99475.09;;;20.71;68.03
28630;BME280;15817;42.130;24.762;2023-04-30T12:49:29;99461.06;;;20.47;67.49
28630;BME280;15817;42.130;24.762;2023-04-30T12:52:02;99455.34;;;20.36;69.01
28630;BME280;15817;42.130;24.762;2023-04-30T12:54:32;99456.50;;;20.31;72.14
28630;BME280;15817;42.130;24.762;2023-04-30T12:59:35;99428.25;;;20.03;73.69
28630;BME280;15817;42.130;24.762;2023-04-30T13:02:22;99418.94;;;20.09;80.14
28630;BME280;15817;42.130;24.762;2023-04-30T13:04:48;99398.84;;;19.97;77.94
28630;BME280;15817;42.130;24.762;2023-04-30T13:07:13;99395.19;;;19.98;80.08
28630;BME280;15817;42.130;24.762;2023-04-30T13:09:39;99387.44;;;19.92;81.45
28630;BME280;15817;42.130;24.762;2023-04-30T13:12:05;99412.34;;;19.97;78.93
28630;BME280;15817;42.130;24.762;2023-04-30T13:14:31;99408.16;;;19.92;77.86
28630;BME280;15817;42.130;24.762;2023-04-30T13:16:57;99410.03;;;19.89;80.37
28630;BME280;15817;42.130;24.762;2023-04-30T13:19:23;99410.03;;;19.89;80.54
28630;BME280;15817;42.130;24.762;2023-04-30T13:21:49;99416.31;;;19.90;82.98
28630;BME280;15817;42.130;24.762;2023-04-30T13:24:15;99420.59;;;19.77;81.94
28630;BME280;15817;42.130;24.762;2023-04-30T13:26:42;99427.25;;;19.70;80.88
28630;BME280;15817;42.130;24.762;2023-04-30T13:29:07;99429.03;;;19.52;82.48
28630;BME280;15817;42.130;24.762;2023-04-30T13:31:33;99446.38;;;19.46;85.74
28630;BME280;15817;42.130;24.762;2023-04-30T13:33:59;99460.09;;;19.23;84.45